createdAt,value
2022-12-12T00:12:23.282Z,14.53975
2022-12-12T00:27:25.657Z,0.96932
2022-12-12T00:42:27.934Z,0
2022-12-12T00:57:30.122Z,1.93863
2022-12-12T01:12:32.347Z,1.93863
2022-12-12T01:27:34.567Z,1.93863
2022-12-12T01:42:36.765Z,1.93863
2022-12-12T01:57:38.995Z,1.93863
2022-12-12T02:12:41.249Z,1.93863
2022-12-12T02:27:43.440Z,0
2022-12-12T02:42:45.678Z,0
2022-12-12T02:57:47.935Z,0
2022-12-12T03:12:50.162Z,1.93863
2022-12-12T03:27:52.358Z,1.93863
2022-12-12T03:42:54.576Z,1.93863
2022-12-12T03:57:57.105Z,1.93863
2022-12-12T04:12:59.792Z,1.93863
2022-12-12T04:28:03.212Z,1.93863
2022-12-12T04:43:05.489Z,1.93863
2022-12-12T04:58:07.730Z,1.93863
2022-12-12T05:13:09.925Z,1.93863
2022-12-12T05:28:12.939Z,1.93863
2022-12-12T05:43:15.309Z,1.93863
2022-12-12T05:58:17.542Z,1.93863
2022-12-12T06:13:19.751Z,0
2022-12-12T06:28:21.937Z,0
2022-12-12T06:43:24.141Z,0
2022-12-12T06:58:26.455Z,0
2022-12-12T07:13:28.639Z,0
2022-12-12T07:28:30.961Z,0
2022-12-12T07:43:35.290Z,0
2022-12-12T07:58:39.516Z,0
2022-12-12T08:13:41.900Z,0
2022-12-12T08:28:44.161Z,0
2022-12-12T08:43:46.375Z,0
2022-12-12T08:58:48.622Z,0
2022-12-12T09:13:50.848Z,0
2022-12-12T09:28:53.080Z,0
2022-12-12T09:43:55.279Z,0
2022-12-12T09:58:57.656Z,0
2022-12-12T10:13:59.892Z,0
2022-12-12T10:29:02.246Z,0
2022-12-12T10:44:04.525Z,0
2022-12-12T10:59:06.942Z,0
2022-12-12T11:14:09.153Z,0
2022-12-12T11:29:11.401Z,0
2022-12-12T11:44:18.626Z,0
2022-12-12T11:59:22.455Z,0
2022-12-12T12:14:24.676Z,0
2022-12-12T12:29:26.919Z,0
2022-12-12T12:44:29.076Z,0
2022-12-12T12:59:31.325Z,0
2022-12-12T13:14:33.547Z,0
2022-12-12T13:29:35.738Z,0
2022-12-12T13:44:37.957Z,0
2022-12-12T13:59:40.169Z,0
2022-12-12T14:14:42.401Z,0
2022-12-12T14:29:44.589Z,0
2022-12-12T14:44:50.673Z,0
2022-12-12T14:59:53.221Z,0.96932
2022-12-12T15:14:55.391Z,8.72385
2022-12-12T15:29:57.630Z,64.94422
2022-12-12T15:45:00.051Z,221.97353
2022-12-12T16:00:02.392Z,561.23438
2022-12-12T16:15:04.839Z,691.1228
2022-12-12T16:30:07.097Z,1019.72119
2022-12-12T16:45:09.514Z,1356.0741
2022-12-12T17:00:12.045Z,1854.30286
2022-12-12T17:15:14.545Z,2075.30713
2022-12-12T17:30:17.089Z,2622.00171
2022-12-12T17:45:19.580Z,2811.01855
2022-12-12T18:00:21.856Z,3420.71875
2022-12-12T18:15:24.208Z,4334.78418
2022-12-12T18:30:26.421Z,4851.43018
2022-12-12T18:45:28.818Z,6349.99365
2022-12-12T19:00:31.080Z,6783.27832
2022-12-12T19:15:33.472Z,7212.68555
2022-12-12T19:30:35.846Z,8201.38867
2022-12-12T19:45:38.088Z,5667.59473
2022-12-12T20:00:40.327Z,17932.35938
2022-12-12T20:15:42.726Z,10113.85059
2022-12-12T20:30:47.638Z,15238.62793
2022-12-12T20:45:51.837Z,13291.27051
2022-12-12T21:00:54.113Z,11695.77539
2022-12-12T21:15:56.361Z,8581.36133
2022-12-12T21:30:58.676Z,7037.23926
2022-12-12T21:46:01.006Z,5802.33008
2022-12-12T22:01:03.197Z,3235.5791
2022-12-12T22:16:05.574Z,2224.58179
2022-12-12T22:31:07.888Z,1805.83704
2022-12-12T22:46:10.181Z,1710.84399
2022-12-12T23:01:12.448Z,1130.22327
2022-12-12T23:16:14.802Z,901.46454
2022-12-12T23:31:17.122Z,775.45337
2022-12-12T23:46:19.542Z,379.97217
